sensor_id;sensor_type;location;lat;lon;timestamp;pressure;altitude;pressure_sealevel;temperature;humidity
51067;BME280;37112;45.892;-123.962;2023-02-01T00:01:12;102141.21;;;7.74;61.89
51067;BME280;37112;45.892;-123.962;2023-02-01T00:03:22;102145.91;;;7.71;62.05
51067;BME280;37112;45.892;-123.962;2023-02-01T00:05:32;102138.73;;;7.68;62.04
51067;BME280;37112;45.892;-123.962;2023-02-01T00:07:44;102132.66;;;7.65;62.25
51067;BME280;37112;45.892;-123.962;2023-02-01T00:09:56;102131.83;;;7.64;62.31
51067;BME280;37112;45.892;-123.962;2023-02-01T00:12:06;102141.47;;;7.61;62.34
51067;BME280;37112;45.892;-123.962;2023-02-01T00:14:17;102148.73;;;7.60;62.50
51067;BME280;37112;45.892;-123.962;2023-02-01T00:16:28;102153.02;;;7.59;62.56
51067;BME280;37112;45.892;-123.962;2023-02-01T00:18:39;102143.74;;;7.56;62.86
51067;BME280;37112;45.892;-123.962;2023-02-01T00:20:49;102123.45;;;7.54;62.91
51067;BME280;37112;45.892;-123.962;2023-02-01T00:22:59;102102.41;;;7.54;62.94
51067;BME280;37112;45.892;-123.962;2023-02-01T00:25:10;102106.87;;;7.53;63.03
51067;BME280;37112;45.892;-123.962;2023-02-01T00:27:20;102118.98;;;7.51;62.86
51067;BME280;37112;45.892;-123.962;2023-02-01T00:29:30;102127.23;;;7.47;62.92
51067;BME280;37112;45.892;-123.962;2023-02-01T00:31:41;102131.23;;;7.44;63.10
51067;BME280;37112;45.892;-123.962;2023-02-01T00:33:51;102129.25;;;7.40;63.03
51067;BME280;37112;45.892;-123.962;2023-02-01T00:36:03;102122.95;;;7.38;63.11
51067;BME280;37112;45.892;-123.962;2023-02-01T00:38:13;102131.66;;;7.36;63.25
51067;BME280;37112;45.892;-123.962;2023-02-01T00:40:23;102136.87;;;7.33;63.44
51067;BME280;37112;45.892;-123.962;2023-02-01T00:42:34;102133.58;;;7.31;63.40
51067;BME280;37112;45.892;-123.962;2023-02-01T00:44:43;102143.92;;;7.28;63.42
51067;BME280;37112;45.892;-123.962;2023-02-01T00:46:53;102140.98;;;7.26;63.56
51067;BME280;37112;45.892;-123.962;2023-02-01T00:49:04;102133.78;;;7.25;63.67
51067;BME280;37112;45.892;-123.962;2023-02-01T00:51:18;102132.39;;;7.24;63.73
51067;BME280;37112;45.892;-123.962;2023-02-01T00:53:28;102133.45;;;7.23;63.83
51067;BME280;37112;45.892;-123.962;2023-02-01T00:55:39;102130.44;;;7.24;63.70
51067;BME280;37112;45.892;-123.962;2023-02-01T00:57:50;102126.39;;;7.24;63.83
51067;BME280;37112;45.892;-123.962;2023-02-01T01:00:00;102124.98;;;7.23;63.75
51067;BME280;37112;45.892;-123.962;2023-02-01T01:02:11;102115.08;;;7.23;63.69
51067;BME280;37112;45.892;-123.962;2023-02-01T01:04:22;102117.40;;;7.22;63.88
51067;BME280;37112;45.892;-123.962;2023-02-01T01:06:34;102127.20;;;7.20;63.98
51067;BME280;37112;45.892;-123.962;2023-02-01T01:08:44;102127.27;;;7.18;63.87
51067;BME280;37112;45.892;-123.962;2023-02-01T01:10:54;102127.17;;;7.15;64.03
51067;BME280;37112;45.892;-123.962;2023-02-01T01:13:05;102129.79;;;7.11;64.01
51067;BME280;37112;45.892;-123.962;2023-02-01T01:15:15;102136.29;;;7.06;63.84
51067;BME280;37112;45.892;-123.962;2023-02-01T01:17:25;102133.14;;;6.99;64.08
51067;BME280;37112;45.892;-123.962;2023-02-01T01:19:35;102127.14;;;6.93;64.08
51067;BME280;37112;45.892;-123.962;2023-02-01T01:21:45;102118.35;;;6.86;64.02
51067;BME280;37112;45.892;-123.962;2023-02-01T01:23:56;102112.27;;;6.77;64.16
51067;BME280;37112;45.892;-123.962;2023-02-01T01:26:09;102107.50;;;6.65;64.24
51067;BME280;37112;45.892;-123.962;2023-02-01T01:28:19;102104.59;;;6.55;64.37
51067;BME280;37112;45.892;-123.962;2023-02-01T01:30:29;102103.27;;;6.47;64.50
51067;BME280;37112;45.892;-123.962;2023-02-01T01:32:39;102107.35;;;6.39;64.63
51067;BME280;37112;45.892;-123.962;2023-02-01T01:34:49;102119.55;;;6.32;64.86
51067;BME280;37112;45.892;-123.962;2023-02-01T01:36:59;102117.47;;;6.24;64.91
51067;BME280;37112;45.892;-123.962;2023-02-01T01:39:09;102105.85;;;6.17;64.95
51067;BME280;37112;45.892;-123.962;2023-02-01T01:41:21;102092.98;;;6.10;65.09
51067;BME280;37112;45.892;-123.962;2023-02-01T01:43:50;102092.83;;;6.03;65.29
51067;BME280;37112;45.892;-123.962;2023-02-01T01:46:02;102097.46;;;5.94;65.45
51067;BME280;37112;45.892;-123.962;2023-02-01T01:48:15;102093.04;;;5.87;65.67
51067;BME280;37112;45.892;-123.962;2023-02-01T01:50:30;102085.09;;;5.80;65.75
51067;BME280;37112;45.892;-123.962;2023-02-01T01:52:43;102087.91;;;5.74;66.01
51067;BME280;37112;45.892;-123.962;2023-02-01T01:54:55;102080.52;;;5.66;66.09
51067;BME280;37112;45.892;-123.962;2023-02-01T01:57:09;102078.06;;;5.59;66.23
51067;BME280;37112;45.892;-123.962;2023-02-01T01:59:21;102065.02;;;5.52;66.32
51067;BME280;37112;45.892;-123.962;2023-02-01T02:01:33;102062.55;;;5.45;66.64
51067;BME280;37112;45.892;-123.962;2023-02-01T02:03:45;102069.07;;;5.38;66.85
51067;BME280;37112;45.892;-123.962;2023-02-01T02:05:57;102075.59;;;5.30;66.87
51067;BME280;37112;45.892;-123.962;2023-02-01T02:08:08;102066.05;;;5.25;67.01
51067;BME280;37112;45.892;-123.962;2023-02-01T02:10:18;102055.95;;;5.20;67.25
51067;BME280;37112;45.892;-123.962;2023-02-01T02:12:29;102050.80;;;5.15;67.23
51067;BME280;37112;45.892;-123.962;2023-02-01T02:14:39;102053.33;;;5.11;67.30
51067;BME280;37112;45.892;-123.962;2023-02-01T02:17:07;102060.48;;;5.07;67.49
51067;BME280;37112;45.892;-123.962;2023-02-01T02:22:39;102067.36;;;5.06;67.70
51067;BME280;37112;45.892;-123.962;2023-02-01T02:25:16;102074.29;;;5.03;67.93
51067;BME280;37112;45.892;-123.962;2023-02-01T02:27:33;102074.58;;;4.98;67.86
51067;BME280;37112;45.892;-123.962;2023-02-01T02:33:03;102083.40;;;4.89;68.03
51067;BME280;37112;45.892;-123.962;2023-02-01T02:35:29;102086.86;;;4.84;67.96
51067;BME280;37112;45.892;-123.962;2023-02-01T02:37:43;102074.61;;;4.81;68.14
51067;BME280;37112;45.892;-123.962;2023-02-01T02:40:01;102070.16;;;4.75;68.23
51067;BME280;37112;45.892;-123.962;2023-02-01T02:42:20;102073.59;;;4.71;68.25
51067;BME280;37112;45.892;-123.962;2023-02-01T02:44:54;102085.34;;;4.65;68.17
51067;BME280;37112;45.892;-123.962;2023-02-01T02:47:29;102091.94;;;4.61;68.20
51067;BME280;37112;45.892;-123.962;2023-02-01T02:49:47;102089.89;;;4.57;68.29
51067;BME280;37112;45.892;-123.962;2023-02-01T02:52:21;102088.59;;;4.53;68.47
51067;BME280;37112;45.892;-123.962;2023-02-01T02:54:50;102090.54;;;4.52;68.57
51067;BME280;37112;45.892;-123.962;2023-02-01T02:57:06;102096.90;;;4.50;68.51
51067;BME280;37112;45.892;-123.962;2023-02-01T02:59:37;102101.55;;;4.46;68.55
51067;BME280;37112;45.892;-123.962;2023-02-01T03:02:05;102099.30;;;4.44;68.89
51067;BME280;37112;45.892;-123.962;2023-02-01T03:04:33;102092.50;;;4.41;68.87
51067;BME280;37112;45.892;-123.962;2023-02-01T03:06:43;102089.96;;;4.37;68.67
51067;BME280;37112;45.892;-123.962;2023-02-01T03:08:57;102084.05;;;4.33;68.79
51067;BME280;37112;45.892;-123.962;2023-02-01T03:11:09;102080.14;;;4.27;68.67
51067;BME280;37112;45.892;-123.962;2023-02-01T03:13:35;102080.98;;;4.20;68.83
51067;BME280;37112;45.892;-123.962;2023-02-01T03:15:53;102099.02;;;4.13;68.94
51067;BME280;37112;45.892;-123.962;2023-02-01T03:18:10;102099.46;;;4.09;69.04
51067;BME280;37112;45.892;-123.962;2023-02-01T03:20:23;102096.88;;;4.06;69.11
51067;BME280;37112;45.892;-123.962;2023-02-01T03:22:36;102093.92;;;4.04;69.16
51067;BME280;37112;45.892;-123.962;2023-02-01T03:24:48;102090.59;;;4.03;69.28
51067;BME280;37112;45.892;-123.962;2023-02-01T03:27:04;102098.34;;;4.03;69.33
51067;BME280;37112;45.892;-123.962;2023-02-01T03:29:17;102107.70;;;4.00;69.35
51067;BME280;37112;45.892;-123.962;2023-02-01T03:31:30;102113.39;;;3.97;69.27
51067;BME280;37112;45.892;-123.962;2023-02-01T03:33:42;102111.37;;;3.92;69.31
51067;BME280;37112;45.892;-123.962;2023-02-01T03:36:00;102104.26;;;3.87;69.43
51067;BME280;37112;45.892;-123.962;2023-02-01T03:38:21;102102.41;;;3.82;69.51
51067;BME280;37112;45.892;-123.962;2023-02-01T03:40:37;102111.45;;;3.78;69.68
51067;BME280;37112;45.892;-123.962;2023-02-01T03:42:50;102114.52;;;3.73;69.70
51067;BME280;37112;45.892;-123.962;2023-02-01T03:45:08;102111.77;;;3.69;69.80
51067;BME280;37112;45.892;-123.962;2023-02-01T03:47:22;102097.06;;;3.66;69.93
51067;BME280;37112;45.892;-123.962;2023-02-01T03:49:40;102090.40;;;3.64;69.96
51067;BME280;37112;45.892;-123.962;2023-02-01T03:51:52;102092.19;;;3.63;70.08
51067;BME280;37112;45.892;-123.962;2023-02-01T03:54:06;102096.42;;;3.62;70.10
51067;BME280;37112;45.892;-123.962;2023-02-01T03:56:17;102089.94;;;3.61;70.24
51067;BME280;37112;45.892;-123.962;2023-02-01T03:58:28;102080.30;;;3.60;70.32
51067;BME280;37112;45.892;-123.962;2023-02-01T04:00:38;102079.45;;;3.59;70.40
51067;BME280;37112;45.892;-123.962;2023-02-01T04:02:48;102087.89;;;3.56;70.48
51067;BME280;37112;45.892;-123.962;2023-02-01T04:04:58;102080.73;;;3.55;70.59
51067;BME280;37112;45.892;-123.962;2023-02-01T04:07:08;102068.66;;;3.53;70.79
51067;BME280;37112;45.892;-123.962;2023-02-01T04:09:18;102069.73;;;3.52;70.83
51067;BME280;37112;45.892;-123.962;2023-02-01T04:11:29;102063.08;;;3.50;71.09
51067;BME280;37112;45.892;-123.962;2023-02-01T04:13:39;102070.49;;;3.47;71.12
51067;BME280;37112;45.892;-123.962;2023-02-01T04:15:50;102073.34;;;3.45;71.17
51067;BME280;37112;45.892;-123.962;2023-02-01T04:18:00;102076.20;;;3.44;71.07
51067;BME280;37112;45.892;-123.962;2023-02-01T04:20:12;102075.67;;;3.43;71.13
51067;BME280;37112;45.892;-123.962;2023-02-01T04:22:22;102073.22;;;3.42;71.15
51067;BME280;37112;45.892;-123.962;2023-02-01T04:24:32;102071.46;;;3.42;71.19
51067;BME280;37112;45.892;-123.962;2023-02-01T04:26:42;102070.95;;;3.42;71.17
51067;BME280;37112;45.892;-123.962;2023-02-01T04:28:51;102069.89;;;3.41;71.10
51067;BME280;37112;45.892;-123.962;2023-02-01T04:31:01;102066.38;;;3.41;71.27
51067;BME280;37112;45.892;-123.962;2023-02-01T04:33:12;102064.63;;;3.41;71.32
51067;BME280;37112;45.892;-123.962;2023-02-01T04:35:23;102053.23;;;3.40;71.28
51067;BME280;37112;45.892;-123.962;2023-02-01T04:37:33;102058.71;;;3.39;71.33
51067;BME280;37112;45.892;-123.962;2023-02-01T04:39:43;102063.65;;;3.37;71.39
51067;BME280;37112;45.892;-123.962;2023-02-01T04:41:53;102061.58;;;3.35;71.33
51067;BME280;37112;45.892;-123.962;2023-02-01T04:44:03;102064.21;;;3.33;71.40
51067;BME280;37112;45.892;-123.962;2023-02-01T04:46:13;102068.46;;;3.32;71.36
51067;BME280;37112;45.892;-123.962;2023-02-01T04:48:24;102066.95;;;3.29;71.41
51067;BME280;37112;45.892;-123.962;2023-02-01T04:50:34;102063.83;;;3.25;71.36
51067;BME280;37112;45.892;-123.962;2023-02-01T04:52:44;102066.52;;;3.23;71.28
51067;BME280;37112;45.892;-123.962;2023-02-01T04:54:54;102071.83;;;3.20;71.39
51067;BME280;37112;45.892;-123.962;2023-02-01T04:57:06;102070.11;;;3.16;71.32
51067;BME280;37112;45.892;-123.962;2023-02-01T04:59:16;102065.95;;;3.14;71.39
51067;BME280;37112;45.892;-123.962;2023-02-01T05:01:26;102064.58;;;3.12;71.53
51067;BME280;37112;45.892;-123.962;2023-02-01T05:03:36;102064.23;;;3.13;71.62
51067;BME280;37112;45.892;-123.962;2023-02-01T05:05:48;102070.02;;;3.12;71.62
51067;BME280;37112;45.892;-123.962;2023-02-01T05:07:58;102074.39;;;3.13;71.70
51067;BME280;37112;45.892;-123.962;2023-02-01T05:10:10;102075.10;;;3.13;71.59
51067;BME280;37112;45.892;-123.962;2023-02-01T05:12:20;102069.14;;;3.11;71.65
51067;BME280;37112;45.892;-123.962;2023-02-01T05:14:47;102062.50;;;3.09;71.78
51067;BME280;37112;45.892;-123.962;2023-02-01T05:16:57;102061.68;;;3.06;71.71
51067;BME280;37112;45.892;-123.962;2023-02-01T05:19:07;102061.70;;;3.04;71.76
51067;BME280;37112;45.892;-123.962;2023-02-01T05:21:17;102055.95;;;3.01;71.82
51067;BME280;37112;45.892;-123.962;2023-02-01T05:23:27;102057.92;;;2.99;71.85
51067;BME280;37112;45.892;-123.962;2023-02-01T05:25:37;102056.21;;;2.96;71.97
51067;BME280;37112;45.892;-123.962;2023-02-01T05:27:47;102059.58;;;2.94;72.08
51067;BME280;37112;45.892;-123.962;2023-02-01T05:29:57;102061.73;;;2.90;72.23
51067;BME280;37112;45.892;-123.962;2023-02-01T05:32:08;102062.83;;;2.88;72.29
51067;BME280;37112;45.892;-123.962;2023-02-01T05:34:29;102061.77;;;2.86;72.34
51067;BME280;37112;45.892;-123.962;2023-02-01T05:36:39;102069.71;;;2.84;72.44
51067;BME280;37112;45.892;-123.962;2023-02-01T05:38:49;102068.48;;;2.84;72.65
51067;BME280;37112;45.892;-123.962;2023-02-01T05:41:00;102062.52;;;2.84;72.76
51067;BME280;37112;45.892;-123.962;2023-02-01T05:43:10;102065.34;;;2.83;72.76
51067;BME280;37112;45.892;-123.962;2023-02-01T05:45:21;102069.73;;;2.83;72.85
51067;BME280;37112;45.892;-123.962;2023-02-01T05:47:31;102068.83;;;2.85;72.99
51067;BME280;37112;45.892;-123.962;2023-02-01T05:49:41;102064.40;;;2.87;73.08
51067;BME280;37112;45.892;-123.962;2023-02-01T05:51:51;102068.26;;;2.88;73.31
51067;BME280;37112;45.892;-123.962;2023-02-01T05:54:00;102063.34;;;2.88;73.20
51067;BME280;37112;45.892;-123.962;2023-02-01T05:56:10;102065.63;;;2.88;73.19
51067;BME280;37112;45.892;-123.962;2023-02-01T05:58:20;102073.16;;;2.88;73.40
51067;BME280;37112;45.892;-123.962;2023-02-01T06:00:30;102071.94;;;2.88;73.30
51067;BME280;37112;45.892;-123.962;2023-02-01T06:02:41;102068.95;;;2.88;73.29
51067;BME280;37112;45.892;-123.962;2023-02-01T06:04:51;102066.67;;;2.87;73.42
51067;BME280;37112;45.892;-123.962;2023-02-01T06:07:01;102070.92;;;2.85;73.45
51067;BME280;37112;45.892;-123.962;2023-02-01T06:09:10;102070.06;;;2.84;73.45
51067;BME280;37112;45.892;-123.962;2023-02-01T06:11:20;102069.88;;;2.85;73.56
51067;BME280;37112;45.892;-123.962;2023-02-01T06:13:39;102067.60;;;2.85;73.62
51067;BME280;37112;45.892;-123.962;2023-02-01T06:15:49;102067.98;;;2.82;73.51
51067;BME280;37112;45.892;-123.962;2023-02-01T06:17:59;102063.45;;;2.80;73.52
51067;BME280;37112;45.892;-123.962;2023-02-01T06:20:12;102061.02;;;2.78;73.67
51067;BME280;37112;45.892;-123.962;2023-02-01T06:22:22;102062.81;;;2.76;73.58
51067;BME280;37112;45.892;-123.962;2023-02-01T06:24:32;102063.16;;;2.76;73.76
51067;BME280;37112;45.892;-123.962;2023-02-01T06:26:42;102056.85;;;2.75;73.85
51067;BME280;37112;45.892;-123.962;2023-02-01T06:28:52;102055.46;;;2.74;73.95
51067;BME280;37112;45.892;-123.962;2023-02-01T06:31:05;102056.02;;;2.73;73.97
51067;BME280;37112;45.892;-123.962;2023-02-01T06:33:15;102054.27;;;2.72;73.99
51067;BME280;37112;45.892;-123.962;2023-02-01T06:35:25;102058.30;;;2.72;74.15
51067;BME280;37112;45.892;-123.962;2023-02-01T06:37:35;102057.42;;;2.71;74.09
51067;BME280;37112;45.892;-123.962;2023-02-01T06:39:45;102056.23;;;2.70;74.19
51067;BME280;37112;45.892;-123.962;2023-02-01T06:41:55;102061.84;;;2.69;74.23
51067;BME280;37112;45.892;-123.962;2023-02-01T06:44:05;102060.63;;;2.68;74.33
51067;BME280;37112;45.892;-123.962;2023-02-01T06:46:15;102059.41;;;2.68;74.19
51067;BME280;37112;45.892;-123.962;2023-02-01T06:48:24;102059.42;;;2.67;74.24
51067;BME280;37112;45.892;-123.962;2023-02-01T06:50:34;102058.05;;;2.65;74.17
51067;BME280;37112;45.892;-123.962;2023-02-01T06:52:44;102057.37;;;2.62;74.12
51067;BME280;37112;45.892;-123.962;2023-02-01T06:54:54;102063.55;;;2.61;74.21
51067;BME280;37112;45.892;-123.962;2023-02-01T06:57:04;102062.70;;;2.59;74.29
51067;BME280;37112;45.892;-123.962;2023-02-01T06:59:13;102056.73;;;2.58;74.37
51067;BME280;37112;45.892;-123.962;2023-02-01T07:01:24;102057.98;;;2.57;74.46
51067;BME280;37112;45.892;-123.962;2023-02-01T07:03:33;102055.34;;;2.57;74.56
51067;BME280;37112;45.892;-123.962;2023-02-01T07:05:43;102056.23;;;2.57;74.56
51067;BME280;37112;45.892;-123.962;2023-02-01T07:07:52;102054.83;;;2.56;74.61
51067;BME280;37112;45.892;-123.962;2023-02-01T07:10:02;102056.23;;;2.55;74.63
51067;BME280;37112;45.892;-123.962;2023-02-01T07:12:12;102054.31;;;2.55;74.75
51067;BME280;37112;45.892;-123.962;2023-02-01T07:14:21;102060.99;;;2.54;74.81
51067;BME280;37112;45.892;-123.962;2023-02-01T07:16:31;102063.45;;;2.54;74.82
51067;BME280;37112;45.892;-123.962;2023-02-01T07:18:41;102065.04;;;2.53;75.01
51067;BME280;37112;45.892;-123.962;2023-02-01T07:20:53;102071.17;;;2.54;75.00
51067;BME280;37112;45.892;-123.962;2023-02-01T07:23:02;102073.94;;;2.55;75.22
51067;BME280;37112;45.892;-123.962;2023-02-01T07:25:13;102073.92;;;2.59;75.50
51067;BME280;37112;45.892;-123.962;2023-02-01T07:27:22;102076.49;;;2.62;75.53
51067;BME280;37112;45.892;-123.962;2023-02-01T07:29:33;102070.50;;;2.64;75.59
51067;BME280;37112;45.892;-123.962;2023-02-01T07:31:43;102068.73;;;2.66;75.75
51067;BME280;37112;45.892;-123.962;2023-02-01T07:33:53;102074.13;;;2.69;75.80
51067;BME280;37112;45.892;-123.962;2023-02-01T07:36:05;102075.66;;;2.70;75.75
51067;BME280;37112;45.892;-123.962;2023-02-01T07:38:16;102075.66;;;2.71;75.90
51067;BME280;37112;45.892;-123.962;2023-02-01T07:40:27;102076.90;;;2.72;75.73
51067;BME280;37112;45.892;-123.962;2023-02-01T07:42:38;102076.90;;;2.72;75.72
51067;BME280;37112;45.892;-123.962;2023-02-01T07:44:49;102077.23;;;2.71;75.69
51067;BME280;37112;45.892;-123.962;2023-02-01T07:46:59;102077.95;;;2.71;75.63
51067;BME280;37112;45.892;-123.962;2023-02-01T07:49:10;102074.96;;;2.71;75.59
51067;BME280;37112;45.892;-123.962;2023-02-01T07:51:22;102071.27;;;2.71;75.90
51067;BME280;37112;45.892;-123.962;2023-02-01T07:53:33;102070.05;;;2.71;75.93
51067;BME280;37112;45.892;-123.962;2023-02-01T07:55:44;102066.73;;;2.71;76.07
51067;BME280;37112;45.892;-123.962;2023-02-01T07:57:53;102066.38;;;2.72;76.05
51067;BME280;37112;45.892;-123.962;2023-02-01T08:00:11;102071.10;;;2.72;76.07
51067;BME280;37112;45.892;-123.962;2023-02-01T08:02:39;102069.00;;;2.73;76.24
51067;BME280;37112;45.892;-123.962;2023-02-01T08:04:49;102058.65;;;2.73;76.36
51067;BME280;37112;45.892;-123.962;2023-02-01T08:06:59;102052.86;;;2.73;76.36
51067;BME280;37112;45.892;-123.962;2023-02-01T08:09:09;102056.35;;;2.73;76.36
51067;BME280;37112;45.892;-123.962;2023-02-01T08:11:20;102054.95;;;2.73;76.51
51067;BME280;37112;45.892;-123.962;2023-02-01T08:13:30;102054.27;;;2.72;76.39
51067;BME280;37112;45.892;-123.962;2023-02-01T08:15:40;102054.98;;;2.70;76.32
51067;BME280;37112;45.892;-123.962;2023-02-01T08:17:51;102053.09;;;2.68;76.34
51067;BME280;37112;45.892;-123.962;2023-02-01T08:20:21;102051.86;;;2.68;76.42
51067;BME280;37112;45.892;-123.962;2023-02-01T08:22:36;102053.14;;;2.66;76.44
51067;BME280;37112;45.892;-123.962;2023-02-01T08:24:52;102058.75;;;2.66;76.50
51067;BME280;37112;45.892;-123.962;2023-02-01T08:27:11;102063.30;;;2.66;76.67
51067;BME280;37112;45.892;-123.962;2023-02-01T08:29:24;102057.83;;;2.68;76.66
51067;BME280;37112;45.892;-123.962;2023-02-01T08:31:37;102053.06;;;2.70;76.55
51067;BME280;37112;45.892;-123.962;2023-02-01T08:33:56;102050.77;;;2.70;76.66
51067;BME280;37112;45.892;-123.962;2023-02-01T08:36:11;102046.02;;;2.71;76.75
51067;BME280;37112;45.892;-123.962;2023-02-01T08:38:24;102043.22;;;2.71;76.68
51067;BME280;37112;45.892;-123.962;2023-02-01T08:40:37;102043.05;;;2.71;76.89
51067;BME280;37112;45.892;-123.962;2023-02-01T08:42:52;102038.85;;;2.70;76.91
51067;BME280;37112;45.892;-123.962;2023-02-01T08:45:07;102036.22;;;2.70;76.88
51067;BME280;37112;45.892;-123.962;2023-02-01T08:47:20;102033.40;;;2.71;77.17
51067;BME280;37112;45.892;-123.962;2023-02-01T08:49:33;102034.45;;;2.72;77.01
51067;BME280;37112;45.892;-123.962;2023-02-01T08:51:46;102034.11;;;2.72;77.14
51067;BME280;37112;45.892;-123.962;2023-02-01T08:53:59;102030.73;;;2.74;77.42
51067;BME280;37112;45.892;-123.962;2023-02-01T08:56:15;102028.77;;;2.77;77.45
51067;BME280;37112;45.892;-123.962;2023-02-01T08:58:28;102028.36;;;2.79;77.35
51067;BME280;37112;45.892;-123.962;2023-02-01T09:00:41;102032.57;;;2.81;77.58
51067;BME280;37112;45.892;-123.962;2023-02-01T09:02:55;102032.18;;;2.83;77.58
51067;BME280;37112;45.892;-123.962;2023-02-01T09:05:09;102037.08;;;2.84;77.60
51067;BME280;37112;45.892;-123.962;2023-02-01T09:07:24;102033.36;;;2.86;77.63
51067;BME280;37112;45.892;-123.962;2023-02-01T09:09:38;102036.20;;;2.85;77.59
51067;BME280;37112;45.892;-123.962;2023-02-01T09:11:52;102036.05;;;2.84;77.69
51067;BME280;37112;45.892;-123.962;2023-02-01T09:14:05;102032.73;;;2.83;77.62
51067;BME280;37112;45.892;-123.962;2023-02-01T09:16:18;102036.24;;;2.82;77.59
51067;BME280;37112;45.892;-123.962;2023-02-01T09:18:32;102040.63;;;2.82;77.52
51067;BME280;37112;45.892;-123.962;2023-02-01T09:20:58;102040.45;;;2.82;77.49
51067;BME280;37112;45.892;-123.962;2023-02-01T09:23:12;102036.58;;;2.83;77.61
51067;BME280;37112;45.892;-123.962;2023-02-01T09:25:25;102040.94;;;2.84;77.58
51067;BME280;37112;45.892;-123.962;2023-02-01T09:27:38;102042.70;;;2.84;77.47
51067;BME280;37112;45.892;-123.962;2023-02-01T09:29:51;102038.84;;;2.84;77.71
51067;BME280;37112;45.892;-123.962;2023-02-01T09:32:05;102039.02;;;2.84;77.85
51067;BME280;37112;45.892;-123.962;2023-02-01T09:34:18;102040.23;;;2.85;77.91
51067;BME280;37112;45.892;-123.962;2023-02-01T09:36:32;102039.16;;;2.86;78.13
51067;BME280;37112;45.892;-123.962;2023-02-01T09:38:45;102035.46;;;2.86;78.25
51067;BME280;37112;45.892;-123.962;2023-02-01T09:41:06;102032.84;;;2.86;78.22
51067;BME280;37112;45.892;-123.962;2023-02-01T09:43:28;102032.11;;;2.87;78.17
51067;BME280;37112;45.892;-123.962;2023-02-01T09:45:47;102028.09;;;2.88;78.22
51067;BME280;37112;45.892;-123.962;2023-02-01T09:48:08;102026.49;;;2.89;78.19
51067;BME280;37112;45.892;-123.962;2023-02-01T09:50:26;102026.31;;;2.89;78.18
51067;BME280;37112;45.892;-123.962;2023-02-01T09:52:45;102029.66;;;2.88;78.25
51067;BME280;37112;45.892;-123.962;2023-02-01T09:55:04;102029.30;;;2.89;78.28
51067;BME280;37112;45.892;-123.962;2023-02-01T09:57:23;102031.93;;;2.88;78.54
51067;BME280;37112;45.892;-123.962;2023-02-01T09:59:42;102030.54;;;2.89;78.73
51067;BME280;37112;45.892;-123.962;2023-02-01T10:01:56;102032.25;;;2.91;78.83
51067;BME280;37112;45.892;-123.962;2023-02-01T10:04:11;102028.34;;;2.93;78.76
51067;BME280;37112;45.892;-123.962;2023-02-01T10:06:35;102028.32;;;2.95;78.59
51067;BME280;37112;45.892;-123.962;2023-02-01T10:09:11;102032.86;;;2.97;78.78
51067;BME280;37112;45.892;-123.962;2023-02-01T10:11:35;102040.88;;;3.00;78.57
51067;BME280;37112;45.892;-123.962;2023-02-01T10:14:05;102042.96;;;3.01;78.61
51067;BME280;37112;45.892;-123.962;2023-02-01T10:16:31;102038.54;;;3.03;78.71
51067;BME280;37112;45.892;-123.962;2023-02-01T10:19:03;102038.54;;;3.02;78.86
51067;BME280;37112;45.892;-123.962;2023-02-01T10:21:25;102038.39;;;3.02;78.85
51067;BME280;37112;45.892;-123.962;2023-02-01T10:26:27;102040.92;;;2.97;78.67
51067;BME280;37112;45.892;-123.962;2023-02-01T10:28:48;102042.35;;;2.96;78.71
51067;BME280;37112;45.892;-123.962;2023-02-01T10:31:01;102041.65;;;2.95;78.63
51067;BME280;37112;45.892;-123.962;2023-02-01T10:33:19;102040.96;;;2.94;78.61
51067;BME280;37112;45.892;-123.962;2023-02-01T10:35:38;102039.91;;;2.94;78.57
51067;BME280;37112;45.892;-123.962;2023-02-01T10:37:52;102036.92;;;2.94;78.54
51067;BME280;37112;45.892;-123.962;2023-02-01T10:40:16;102038.16;;;2.93;78.54
51067;BME280;37112;45.892;-123.962;2023-02-01T10:42:33;102035.38;;;2.92;78.54
51067;BME280;37112;45.892;-123.962;2023-02-01T10:44:47;102036.63;;;2.91;78.52
51067;BME280;37112;45.892;-123.962;2023-02-01T10:47:00;102031.39;;;2.90;78.70
51067;BME280;37112;45.892;-123.962;2023-02-01T10:49:17;102035.27;;;2.89;78.77
51067;BME280;37112;45.892;-123.962;2023-02-01T10:51:34;102031.76;;;2.89;79.01
51067;BME280;37112;45.892;-123.962;2023-02-01T10:53:55;102039.48;;;2.89;79.12
51067;BME280;37112;45.892;-123.962;2023-02-01T10:56:11;102035.27;;;2.89;79.06
51067;BME280;37112;45.892;-123.962;2023-02-01T10:58:30;102035.23;;;2.91;79.25
51067;BME280;37112;45.892;-123.962;2023-02-01T11:00:48;102030.11;;;2.93;79.14
51067;BME280;37112;45.892;-123.962;2023-02-01T11:03:01;102027.82;;;2.93;79.25
51067;BME280;37112;45.892;-123.962;2023-02-01T11:05:46;102028.48;;;2.95;79.25
51067;BME280;37112;45.892;-123.962;2023-02-01T11:08:01;102027.95;;;2.97;79.24
51067;BME280;37112;45.892;-123.962;2023-02-01T11:10:39;102027.41;;;2.98;79.15
51067;BME280;37112;45.892;-123.962;2023-02-01T11:12:55;102024.08;;;2.97;79.06
51067;BME280;37112;45.892;-123.962;2023-02-01T11:15:21;102024.45;;;2.97;79.14
51067;BME280;37112;45.892;-123.962;2023-02-01T11:17:49;102020.08;;;2.95;79.21
51067;BME280;37112;45.892;-123.962;2023-02-01T11:20:05;102023.97;;;2.93;79.27
51067;BME280;37112;45.892;-123.962;2023-02-01T11:22:20;102026.30;;;2.90;79.34
51067;BME280;37112;45.892;-123.962;2023-02-01T11:24:35;102032.11;;;2.89;79.22
51067;BME280;37112;45.892;-123.962;2023-02-01T11:26:49;102026.33;;;2.89;79.40
51067;BME280;37112;45.892;-123.962;2023-02-01T11:29:08;102026.30;;;2.90;79.49
51067;BME280;37112;45.892;-123.962;2023-02-01T11:31:25;102019.95;;;2.92;79.53